sensor_id;sensor_type;location;lat;lon;timestamp;pressure;altitude;pressure_sealevel;temperature;humidity
53932;BME280;39844;52.496;13.482;2023-02-19T00:01:15;101232.53;;;6.03;86.89
53932;BME280;39844;52.496;13.482;2023-02-19T00:03:42;101236.00;;;6.02;86.74
53932;BME280;39844;52.496;13.482;2023-02-19T00:06:11;101246.41;;;6.02;87.52
53932;BME280;39844;52.496;13.482;2023-02-19T00:08:37;101238.53;;;6.01;87.41
53932;BME280;39844;52.496;13.482;2023-02-19T00:11:05;101239.41;;;6.00;87.89
53932;BME280;39844;52.496;13.482;2023-02-19T00:13:38;101241.06;;;5.98;87.73
53932;BME280;39844;52.496;13.482;2023-02-19T00:16:13;101246.34;;;5.99;88.07
53932;BME280;39844;52.496;13.482;2023-02-19T00:18:39;101242.81;;;5.97;88.15
53932;BME280;39844;52.496;13.482;2023-02-19T00:21:05;101245.47;;;5.99;89.02
53932;BME280;39844;52.496;13.482;2023-02-19T00:23:31;101240.22;;;5.97;88.77
53932;BME280;39844;52.496;13.482;2023-02-19T00:25:56;101235.00;;;5.97;88.73
53932;BME280;39844;52.496;13.482;2023-02-19T00:28:25;101241.06;;;5.98;88.75
53932;BME280;39844;52.496;13.482;2023-02-19T00:30:50;101226.34;;;5.98;89.47
53932;BME280;39844;52.496;13.482;2023-02-19T00:33:17;101232.41;;;5.97;89.43
53932;BME280;39844;52.496;13.482;2023-02-19T00:35:42;101234.16;;;5.98;89.81
53932;BME280;39844;52.496;13.482;2023-02-19T00:38:08;101220.22;;;5.96;90.05
53932;BME280;39844;52.496;13.482;2023-02-19T00:40:33;101213.28;;;5.97;89.70
53932;BME280;39844;52.496;13.482;2023-02-19T00:42:58;101209.78;;;5.95;89.39
53932;BME280;39844;52.496;13.482;2023-02-19T00:45:23;101217.59;;;5.95;89.65
53932;BME280;39844;52.496;13.482;2023-02-19T00:47:49;101205.38;;;5.94;89.53
53932;BME280;39844;52.496;13.482;2023-02-19T00:50:14;101212.38;;;5.95;89.89
53932;BME280;39844;52.496;13.482;2023-02-19T00:52:40;101219.31;;;5.96;90.27
53932;BME280;39844;52.496;13.482;2023-02-19T00:55:05;101224.53;;;5.96;90.42
53932;BME280;39844;52.496;13.482;2023-02-19T00:57:30;101209.78;;;5.96;90.77
53932;BME280;39844;52.496;13.482;2023-02-19T00:59:56;101215.88;;;5.97;90.82
53932;BME280;39844;52.496;13.482;2023-02-19T01:02:21;101210.69;;;5.97;91.30
53932;BME280;39844;52.496;13.482;2023-02-19T01:04:46;101208.09;;;5.98;91.48
53932;BME280;39844;52.496;13.482;2023-02-19T01:07:11;101203.75;;;5.99;91.44
53932;BME280;39844;52.496;13.482;2023-02-19T01:09:37;101199.44;;;5.99;91.24
53932;BME280;39844;52.496;13.482;2023-02-19T01:12:04;101200.31;;;6.00;91.59
53932;BME280;39844;52.496;13.482;2023-02-19T01:14:29;101198.56;;;6.00;91.77
53932;BME280;39844;52.496;13.482;2023-02-19T01:16:55;101192.53;;;6.01;92.06
53932;BME280;39844;52.496;13.482;2023-02-19T01:19:20;101191.66;;;6.01;92.44
53932;BME280;39844;52.496;13.482;2023-02-19T01:21:45;101192.53;;;6.01;92.34
53932;BME280;39844;52.496;13.482;2023-02-19T01:24:11;101181.22;;;6.01;93.31
53932;BME280;39844;52.496;13.482;2023-02-19T01:26:36;101187.31;;;6.01;93.14
53932;BME280;39844;52.496;13.482;2023-02-19T01:29:01;101160.38;;;6.01;93.45
53932;BME280;39844;52.496;13.482;2023-02-19T01:31:27;101152.56;;;6.01;93.69
53932;BME280;39844;52.496;13.482;2023-02-19T01:33:55;101150.84;;;6.01;93.91
53932;BME280;39844;52.496;13.482;2023-02-19T01:36:21;101140.41;;;6.01;94.13
53932;BME280;39844;52.496;13.482;2023-02-19T01:38:46;101132.59;;;6.01;94.39
53932;BME280;39844;52.496;13.482;2023-02-19T01:41:14;101147.41;;;6.02;94.82
53932;BME280;39844;52.496;13.482;2023-02-19T01:46:39;101148.97;;;5.94;92.29
53932;BME280;39844;52.496;13.482;2023-02-19T01:51:46;101148.78;;;5.87;92.21
53932;BME280;39844;52.496;13.482;2023-02-19T01:54:16;101143.59;;;5.87;92.55
53932;BME280;39844;52.496;13.482;2023-02-19T01:56:44;101137.38;;;5.83;92.19
53932;BME280;39844;52.496;13.482;2023-02-19T01:59:12;101133.03;;;5.82;92.26
53932;BME280;39844;52.496;13.482;2023-02-19T02:01:38;101131.28;;;5.81;92.51
53932;BME280;39844;52.496;13.482;2023-02-19T02:04:04;101130.38;;;5.79;92.42
53932;BME280;39844;52.496;13.482;2023-02-19T02:06:33;101122.47;;;5.76;92.22
53932;BME280;39844;52.496;13.482;2023-02-19T02:09:00;101123.31;;;5.75;92.00
53932;BME280;39844;52.496;13.482;2023-02-19T02:11:26;101110.28;;;5.75;92.28
53932;BME280;39844;52.496;13.482;2023-02-19T02:13:52;101112.88;;;5.73;92.57
53932;BME280;39844;52.496;13.482;2023-02-19T02:33:05;101128.97;;;5.56;91.05
53932;BME280;39844;52.496;13.482;2023-02-19T02:35:44;101125.47;;;5.54;91.43
53932;BME280;39844;52.496;13.482;2023-02-19T02:38:13;101123.69;;;5.53;92.23
53932;BME280;39844;52.496;13.482;2023-02-19T02:40:41;101117.66;;;5.54;92.38
53932;BME280;39844;52.496;13.482;2023-02-19T02:43:07;101111.59;;;5.55;92.73
53932;BME280;39844;52.496;13.482;2023-02-19T02:45:33;101109.84;;;5.54;92.64
53932;BME280;39844;52.496;13.482;2023-02-19T02:47:58;101112.38;;;5.52;92.26
53932;BME280;39844;52.496;13.482;2023-02-19T02:50:33;101106.25;;;5.49;91.38
53932;BME280;39844;52.496;13.482;2023-02-19T02:53:08;101104.41;;;5.45;91.81
53932;BME280;39844;52.496;13.482;2023-02-19T02:55:38;101109.50;;;5.39;91.72
53932;BME280;39844;52.496;13.482;2023-02-19T02:58:06;101117.16;;;5.33;91.58
53932;BME280;39844;52.496;13.482;2023-02-19T03:00:32;101124.88;;;5.30;92.37
53932;BME280;39844;52.496;13.482;2023-02-19T03:02:59;101126.56;;;5.28;92.12
53932;BME280;39844;52.496;13.482;2023-02-19T03:05:25;101125.59;;;5.23;91.79
53932;BME280;39844;52.496;13.482;2023-02-19T03:07:52;101125.50;;;5.20;92.36
53932;BME280;39844;52.496;13.482;2023-02-19T03:10:24;101122.91;;;5.20;93.54
53932;BME280;39844;52.496;13.482;2023-02-19T03:12:51;101135.97;;;5.21;94.22
53932;BME280;39844;52.496;13.482;2023-02-19T03:15:18;101132.31;;;5.15;93.28
53932;BME280;39844;52.496;13.482;2023-02-19T03:17:47;101131.34;;;5.09;93.26
53932;BME280;39844;52.496;13.482;2023-02-19T03:20:15;101138.97;;;5.03;93.22
53932;BME280;39844;52.496;13.482;2023-02-19T03:22:44;101148.44;;;5.00;94.18
53932;BME280;39844;52.496;13.482;2023-02-19T03:25:18;101144.75;;;4.92;92.90
53932;BME280;39844;52.496;13.482;2023-02-19T03:27:46;101155.06;;;4.87;93.46
53932;BME280;39844;52.496;13.482;2023-02-19T03:30:18;101161.06;;;4.86;94.14
53932;BME280;39844;52.496;13.482;2023-02-19T03:32:48;101154.84;;;4.80;94.49
53932;BME280;39844;52.496;13.482;2023-02-19T03:35:24;101161.75;;;4.79;95.17
53932;BME280;39844;52.496;13.482;2023-02-19T03:40:25;101153.59;;;4.66;93.94
53932;BME280;39844;52.496;13.482;2023-02-19T03:45:32;101159.34;;;4.54;95.09
53932;BME280;39844;52.496;13.482;2023-02-19T03:48:30;101153.97;;;4.48;94.58
53932;BME280;39844;52.496;13.482;2023-02-19T03:54:05;101175.03;;;4.27;91.99
53932;BME280;39844;52.496;13.482;2023-02-19T03:56:44;101167.84;;;4.17;92.43
53932;BME280;39844;52.496;13.482;2023-02-19T04:02:00;101169.28;;;4.08;91.75
53932;BME280;39844;52.496;13.482;2023-02-19T04:04:31;101171.78;;;4.05;92.33
53932;BME280;39844;52.496;13.482;2023-02-19T04:06:57;101167.28;;;3.99;91.29
53932;BME280;39844;52.496;13.482;2023-02-19T04:09:27;101170.66;;;3.95;91.70
53932;BME280;39844;52.496;13.482;2023-02-19T04:11:55;101179.22;;;3.93;92.52
53932;BME280;39844;52.496;13.482;2023-02-19T04:14:31;101186.91;;;3.90;92.63
53932;BME280;39844;52.496;13.482;2023-02-19T04:17:01;101179.09;;;3.88;92.95
53932;BME280;39844;52.496;13.482;2023-02-19T04:19:30;101179.88;;;3.86;93.17
53932;BME280;39844;52.496;13.482;2023-02-19T04:21:58;101179.88;;;3.86;93.99
53932;BME280;39844;52.496;13.482;2023-02-19T04:24:28;101192.81;;;3.84;94.38
53932;BME280;39844;52.496;13.482;2023-02-19T04:26:55;101184.97;;;3.82;94.22
53932;BME280;39844;52.496;13.482;2023-02-19T04:29:21;101192.66;;;3.79;93.81
53932;BME280;39844;52.496;13.482;2023-02-19T04:31:46;101189.97;;;3.76;94.12
53932;BME280;39844;52.496;13.482;2023-02-19T04:34:12;101195.13;;;3.75;94.49
53932;BME280;39844;52.496;13.482;2023-02-19T04:36:37;101208.09;;;3.75;94.58
53932;BME280;39844;52.496;13.482;2023-02-19T04:39:02;101213.28;;;3.73;94.62
53932;BME280;39844;52.496;13.482;2023-02-19T04:41:28;101202.81;;;3.72;95.03
53932;BME280;39844;52.496;13.482;2023-02-19T04:43:53;101204.53;;;3.71;95.57
53932;BME280;39844;52.496;13.482;2023-02-19T04:46:18;101207.09;;;3.70;95.86
53932;BME280;39844;52.496;13.482;2023-02-19T04:48:44;101205.38;;;3.70;96.07
53932;BME280;39844;52.496;13.482;2023-02-19T04:51:10;101212.13;;;3.65;94.52
53932;BME280;39844;52.496;13.482;2023-02-19T04:53:36;101220.75;;;3.64;95.67
53932;BME280;39844;52.496;13.482;2023-02-19T04:56:08;101214.63;;;3.62;95.65
53932;BME280;39844;52.496;13.482;2023-02-19T04:58:35;101217.22;;;3.62;95.93
53932;BME280;39844;52.496;13.482;2023-02-19T05:01:00;101218.91;;;3.60;95.79
53932;BME280;39844;52.496;13.482;2023-02-19T05:03:25;101232.66;;;3.58;96.00
53932;BME280;39844;52.496;13.482;2023-02-19T05:05:51;101217.03;;;3.56;96.83
53932;BME280;39844;52.496;13.482;2023-02-19T05:08:16;101224.88;;;3.58;97.59
53932;BME280;39844;52.496;13.482;2023-02-19T05:10:41;101237.84;;;3.58;97.06
53932;BME280;39844;52.496;13.482;2023-02-19T05:13:06;101236.72;;;3.50;96.03
53932;BME280;39844;52.496;13.482;2023-02-19T05:15:32;101229.59;;;3.44;96.54
53932;BME280;39844;52.496;13.482;2023-02-19T05:17:57;101227.78;;;3.42;97.27
53932;BME280;39844;52.496;13.482;2023-02-19T05:20:23;101232.09;;;3.41;97.66
53932;BME280;39844;52.496;13.482;2023-02-19T05:22:48;101233.75;;;3.39;97.33
53932;BME280;39844;52.496;13.482;2023-02-19T05:25:13;101227.66;;;3.37;97.79
53932;BME280;39844;52.496;13.482;2023-02-19T05:27:38;101222.34;;;3.34;97.35
53932;BME280;39844;52.496;13.482;2023-02-19T05:30:04;101223.16;;;3.33;97.79
53932;BME280;39844;52.496;13.482;2023-02-19T05:32:29;101227.50;;;3.33;97.51
53932;BME280;39844;52.496;13.482;2023-02-19T05:34:55;101231.81;;;3.32;98.27
53932;BME280;39844;52.496;13.482;2023-02-19T05:37:20;101224.84;;;3.31;97.97
53932;BME280;39844;52.496;13.482;2023-02-19T05:39:47;101226.63;;;3.32;98.33
53932;BME280;39844;52.496;13.482;2023-02-19T05:42:13;101228.47;;;3.36;98.90
53932;BME280;39844;52.496;13.482;2023-02-19T05:44:38;101225.00;;;3.36;98.44
53932;BME280;39844;52.496;13.482;2023-02-19T05:47:03;101233.66;;;3.36;98.97
53932;BME280;39844;52.496;13.482;2023-02-19T05:49:29;101237.97;;;3.36;98.49
53932;BME280;39844;52.496;13.482;2023-02-19T05:51:54;101231.03;;;3.35;97.95
53932;BME280;39844;52.496;13.482;2023-02-19T05:54:19;101238.84;;;3.36;98.39
53932;BME280;39844;52.496;13.482;2023-02-19T05:56:45;101239.69;;;3.35;97.76
53932;BME280;39844;52.496;13.482;2023-02-19T05:59:18;101242.28;;;3.35;97.59
53932;BME280;39844;52.496;13.482;2023-02-19T06:01:44;101247.47;;;3.35;97.76
53932;BME280;39844;52.496;13.482;2023-02-19T06:04:10;101244.97;;;3.38;97.82
53932;BME280;39844;52.496;13.482;2023-02-19T06:06:36;101250.25;;;3.41;98.29
53932;BME280;39844;52.496;13.482;2023-02-19T06:09:02;101246.00;;;3.43;98.04
53932;BME280;39844;52.496;13.482;2023-02-19T06:11:28;101242.59;;;3.44;97.56
53932;BME280;39844;52.496;13.482;2023-02-19T06:13:53;101238.22;;;3.43;97.75
53932;BME280;39844;52.496;13.482;2023-02-19T06:16:18;101242.53;;;3.43;97.45
53932;BME280;39844;52.496;13.482;2023-02-19T06:18:44;101243.50;;;3.46;98.71
53932;BME280;39844;52.496;13.482;2023-02-19T06:21:13;101250.63;;;3.52;98.59
53932;BME280;39844;52.496;13.482;2023-02-19T06:23:39;101241.00;;;3.49;97.36
53932;BME280;39844;52.496;13.482;2023-02-19T06:26:07;101247.97;;;3.50;97.89
53932;BME280;39844;52.496;13.482;2023-02-19T06:28:32;101253.28;;;3.53;97.91
53932;BME280;39844;52.496;13.482;2023-02-19T06:30:58;101245.38;;;3.50;97.07
53932;BME280;39844;52.496;13.482;2023-02-19T06:33:24;101256.59;;;3.49;96.58
53932;BME280;39844;52.496;13.482;2023-02-19T06:35:50;101256.59;;;3.49;96.66
53932;BME280;39844;52.496;13.482;2023-02-19T06:38:15;101274.66;;;3.46;95.59
53932;BME280;39844;52.496;13.482;2023-02-19T06:40:40;101270.34;;;3.47;95.62
53932;BME280;39844;52.496;13.482;2023-02-19T06:43:06;101274.66;;;3.46;95.82
53932;BME280;39844;52.496;13.482;2023-02-19T06:45:31;101284.22;;;3.47;95.25
53932;BME280;39844;52.496;13.482;2023-02-19T06:47:56;101296.28;;;3.47;94.47
53932;BME280;39844;52.496;13.482;2023-02-19T06:50:21;101297.19;;;3.47;94.61
53932;BME280;39844;52.496;13.482;2023-02-19T06:52:47;101304.22;;;3.51;95.34
53932;BME280;39844;52.496;13.482;2023-02-19T06:55:12;101312.13;;;3.54;94.87
53932;BME280;39844;52.496;13.482;2023-02-19T06:57:37;101318.19;;;3.55;94.43
53932;BME280;39844;52.496;13.482;2023-02-19T07:00:03;101324.38;;;3.58;95.03
53932;BME280;39844;52.496;13.482;2023-02-19T07:02:28;101322.72;;;3.60;94.31
53932;BME280;39844;52.496;13.482;2023-02-19T07:04:54;101320.13;;;3.60;94.00
53932;BME280;39844;52.496;13.482;2023-02-19T07:07:19;101330.59;;;3.63;93.36
53932;BME280;39844;52.496;13.482;2023-02-19T07:09:44;101331.53;;;3.65;93.25
53932;BME280;39844;52.496;13.482;2023-02-19T07:12:10;101325.47;;;3.65;91.65
53932;BME280;39844;52.496;13.482;2023-02-19T07:14:35;101335.09;;;3.69;92.43
53932;BME280;39844;52.496;13.482;2023-02-19T07:17:00;101333.50;;;3.72;92.63
53932;BME280;39844;52.496;13.482;2023-02-19T07:19:26;101335.16;;;3.70;91.77
53932;BME280;39844;52.496;13.482;2023-02-19T07:21:51;101336.84;;;3.68;90.92
53932;BME280;39844;52.496;13.482;2023-02-19T07:24:17;101350.66;;;3.69;90.77
53932;BME280;39844;52.496;13.482;2023-02-19T07:26:42;101353.34;;;3.70;90.81
53932;BME280;39844;52.496;13.482;2023-02-19T07:29:08;101355.16;;;3.73;90.54
53932;BME280;39844;52.496;13.482;2023-02-19T07:31:34;101360.34;;;3.73;89.03
53932;BME280;39844;52.496;13.482;2023-02-19T07:33:59;101363.97;;;3.78;90.52
53932;BME280;39844;52.496;13.482;2023-02-19T07:36:24;101363.31;;;3.83;89.80
53932;BME280;39844;52.496;13.482;2023-02-19T07:38:56;101368.53;;;3.85;89.79
53932;BME280;39844;52.496;13.482;2023-02-19T07:41:23;101369.47;;;3.87;88.37
53932;BME280;39844;52.496;13.482;2023-02-19T07:43:48;101377.41;;;3.92;88.74
53932;BME280;39844;52.496;13.482;2023-02-19T07:46:13;101384.38;;;3.93;87.64
53932;BME280;39844;52.496;13.482;2023-02-19T07:48:40;101383.63;;;3.97;88.30
53932;BME280;39844;52.496;13.482;2023-02-19T07:51:09;101388.00;;;3.98;87.24
53932;BME280;39844;52.496;13.482;2023-02-19T07:53:35;101384.69;;;4.02;87.45
53932;BME280;39844;52.496;13.482;2023-02-19T07:56:03;101398.44;;;3.99;86.05
53932;BME280;39844;52.496;13.482;2023-02-19T07:58:29;101402.78;;;3.99;85.67
53932;BME280;39844;52.496;13.482;2023-02-19T08:00:54;101404.41;;;3.97;84.99
53932;BME280;39844;52.496;13.482;2023-02-19T08:03:20;101413.09;;;3.97;84.90
53932;BME280;39844;52.496;13.482;2023-02-19T08:05:45;101408.81;;;3.99;84.93
53932;BME280;39844;52.496;13.482;2023-02-19T08:08:13;101417.56;;;4.01;85.28
53932;BME280;39844;52.496;13.482;2023-02-19T08:10:39;101426.25;;;4.02;85.09
53932;BME280;39844;52.496;13.482;2023-02-19T08:13:05;101439.28;;;4.03;85.01
53932;BME280;39844;52.496;13.482;2023-02-19T08:15:31;101443.56;;;4.03;84.81
53932;BME280;39844;52.496;13.482;2023-02-19T08:17:57;101440.97;;;4.03;85.29
53932;BME280;39844;52.496;13.482;2023-02-19T08:20:22;101453.25;;;4.07;86.21
53932;BME280;39844;52.496;13.482;2023-02-19T08:22:47;101443.69;;;4.06;86.10
53932;BME280;39844;52.496;13.482;2023-02-19T08:25:13;101462.81;;;4.08;85.82
53932;BME280;39844;52.496;13.482;2023-02-19T08:27:38;101464.56;;;4.09;85.63
53932;BME280;39844;52.496;13.482;2023-02-19T08:30:03;101476.63;;;4.07;85.62
53932;BME280;39844;52.496;13.482;2023-02-19T08:32:29;101482.66;;;4.06;85.62
53932;BME280;39844;52.496;13.482;2023-02-19T08:34:54;101480.94;;;4.06;86.29
53932;BME280;39844;52.496;13.482;2023-02-19T08:37:19;101486.19;;;4.08;86.53
53932;BME280;39844;52.496;13.482;2023-02-19T08:39:45;101497.50;;;4.10;86.41
53932;BME280;39844;52.496;13.482;2023-02-19T08:42:10;101495.09;;;4.14;87.04
53932;BME280;39844;52.496;13.482;2023-02-19T08:44:35;101502.09;;;4.17;85.97
53932;BME280;39844;52.496;13.482;2023-02-19T08:47:02;101501.25;;;4.18;86.43
53932;BME280;39844;52.496;13.482;2023-02-19T08:49:28;101505.66;;;4.20;86.41
53932;BME280;39844;52.496;13.482;2023-02-19T08:51:53;101502.41;;;4.26;86.68
53932;BME280;39844;52.496;13.482;2023-02-19T08:54:18;101507.75;;;4.30;85.77
53932;BME280;39844;52.496;13.482;2023-02-19T08:56:43;101517.34;;;4.33;84.88
53932;BME280;39844;52.496;13.482;2023-02-19T08:59:09;101531.38;;;4.38;84.72
53932;BME280;39844;52.496;13.482;2023-02-19T09:01:34;101518.53;;;4.42;84.40
53932;BME280;39844;52.496;13.482;2023-02-19T09:03:59;101526.66;;;4.52;84.18
53932;BME280;39844;52.496;13.482;2023-02-19T09:06:25;101533.09;;;4.63;84.84
53932;BME280;39844;52.496;13.482;2023-02-19T09:08:50;101534.19;;;4.69;83.68
53932;BME280;39844;52.496;13.482;2023-02-19T09:11:15;101542.13;;;4.74;82.15
53932;BME280;39844;52.496;13.482;2023-02-19T09:13:42;101543.13;;;4.77;81.48
53932;BME280;39844;52.496;13.482;2023-02-19T09:16:08;101551.06;;;4.82;81.97
53932;BME280;39844;52.496;13.482;2023-02-19T09:18:33;101546.78;;;4.84;80.36
53932;BME280;39844;52.496;13.482;2023-02-19T09:21:00;101546.88;;;4.87;80.67
53932;BME280;39844;52.496;13.482;2023-02-19T09:23:26;101552.34;;;4.94;81.36
53932;BME280;39844;52.496;13.482;2023-02-19T09:26:01;101561.28;;;5.02;80.19
53932;BME280;39844;52.496;13.482;2023-02-19T09:28:26;101568.16;;;5.00;79.54
53932;BME280;39844;52.496;13.482;2023-02-19T09:30:52;101556.91;;;5.01;79.68
53932;BME280;39844;52.496;13.482;2023-02-19T09:33:17;101555.22;;;5.03;80.11
53932;BME280;39844;52.496;13.482;2023-02-19T09:35:43;101565.00;;;5.10;80.52
53932;BME280;39844;52.496;13.482;2023-02-19T09:38:08;101565.06;;;5.13;79.45
53932;BME280;39844;52.496;13.482;2023-02-19T09:40:34;101566.03;;;5.16;78.21
53932;BME280;39844;52.496;13.482;2023-02-19T09:42:59;101579.19;;;5.20;80.05
53932;BME280;39844;52.496;13.482;2023-02-19T09:45:25;101568.75;;;5.19;77.89
53932;BME280;39844;52.496;13.482;2023-02-19T09:47:56;101577.38;;;5.18;78.27
53932;BME280;39844;52.496;13.482;2023-02-19T09:50:33;101585.06;;;5.15;77.83
53932;BME280;39844;52.496;13.482;2023-02-19T09:53:02;101575.66;;;5.18;77.95
53932;BME280;39844;52.496;13.482;2023-02-19T09:55:38;101587.09;;;5.23;78.22
53932;BME280;39844;52.496;13.482;2023-02-19T09:58:21;101586.31;;;5.26;77.74
53932;BME280;39844;52.496;13.482;2023-02-19T10:00:48;101592.31;;;5.25;76.61
53932;BME280;39844;52.496;13.482;2023-02-19T10:03:33;101597.59;;;5.26;75.18
53932;BME280;39844;52.496;13.482;2023-02-19T10:06:19;101595.25;;;5.34;74.66
53932;BME280;39844;52.496;13.482;2023-02-19T10:08:47;101605.91;;;5.43;75.76
53932;BME280;39844;52.496;13.482;2023-02-19T10:11:13;101606.03;;;5.46;72.79
53932;BME280;39844;52.496;13.482;2023-02-19T10:13:46;101606.03;;;5.46;73.25
53932;BME280;39844;52.496;13.482;2023-02-19T10:16:24;101607.97;;;5.53;73.34
53932;BME280;39844;52.496;13.482;2023-02-19T10:18:50;101617.84;;;5.64;74.48
53932;BME280;39844;52.496;13.482;2023-02-19T10:21:19;101627.69;;;5.73;73.82
53932;BME280;39844;52.496;13.482;2023-02-19T10:23:48;101634.75;;;5.77;72.45
53932;BME280;39844;52.496;13.482;2023-02-19T10:26:15;101642.50;;;5.75;70.26
53932;BME280;39844;52.496;13.482;2023-02-19T10:28:40;101633.78;;;5.73;70.25
53932;BME280;39844;52.496;13.482;2023-02-19T10:31:24;101650.47;;;5.80;70.64
53932;BME280;39844;52.496;13.482;2023-02-19T10:33:57;101650.56;;;5.83;69.16
53932;BME280;39844;52.496;13.482;2023-02-19T10:36:34;101653.13;;;5.82;68.42
53932;BME280;39844;52.496;13.482;2023-02-19T10:39:18;101662.94;;;5.89;68.97
53932;BME280;39844;52.496;13.482;2023-02-19T10:41:50;101652.63;;;5.93;69.65
53932;BME280;39844;52.496;13.482;2023-02-19T10:44:23;101661.47;;;5.98;69.52
53932;BME280;39844;52.496;13.482;2023-02-19T10:46:51;101660.66;;;5.99;69.43
53932;BME280;39844;52.496;13.482;2023-02-19T10:49:24;101665.09;;;6.03;68.51
53932;BME280;39844;52.496;13.482;2023-02-19T10:51:51;101669.38;;;6.01;67.48
53932;BME280;39844;52.496;13.482;2023-02-19T10:56:50;101672.47;;;6.18;68.28
53932;BME280;39844;52.496;13.482;2023-02-19T10:59:24;101675.56;;;6.34;69.02
53932;BME280;39844;52.496;13.482;2023-02-19T11:02:01;101681.00;;;6.42;66.62
53932;BME280;39844;52.496;13.482;2023-02-19T11:04:28;101683.50;;;6.38;65.36
53932;BME280;39844;52.496;13.482;2023-02-19T11:06:54;101678.09;;;6.31;64.37
53932;BME280;39844;52.496;13.482;2023-02-19T11:09:26;101695.34;;;6.28;64.51
53932;BME280;39844;52.496;13.482;2023-02-19T11:11:53;101706.53;;;6.24;63.59
53932;BME280;39844;52.496;13.482;2023-02-19T11:14:21;101702.94;;;6.20;63.49
53932;BME280;39844;52.496;13.482;2023-02-19T11:16:50;101712.31;;;6.14;63.17
53932;BME280;39844;52.496;13.482;2023-02-19T11:19:32;101710.50;;;6.11;63.30
53932;BME280;39844;52.496;13.482;2023-02-19T11:21:59;101707.16;;;6.15;62.79
53932;BME280;39844;52.496;13.482;2023-02-19T11:24:33;101718.56;;;6.19;62.80
53932;BME280;39844;52.496;13.482;2023-02-19T11:27:03;101730.91;;;6.24;62.46
53932;BME280;39844;52.496;13.482;2023-02-19T11:29:29;101734.28;;;6.22;61.64
53932;BME280;39844;52.496;13.482;2023-02-19T11:31:55;101745.63;;;6.22;61.58
53932;BME280;39844;52.496;13.482;2023-02-19T11:34:22;101731.56;;;6.17;60.82
53932;BME280;39844;52.496;13.482;2023-02-19T11:37:10;101718.53;;;6.17;61.18
53932;BME280;39844;52.496;13.482;2023-02-19T11:39:36;101723.78;;;6.19;61.57
53932;BME280;39844;52.496;13.482;2023-02-19T11:50:56;101735.72;;;6.41;59.87
53932;BME280;39844;52.496;13.482;2023-02-19T11:53:28;101717.69;;;6.48;59.49
53932;BME280;39844;52.496;13.482;2023-02-19T11:58:58;101723.47;;;6.68;59.87
53932;BME280;39844;52.496;13.482;2023-02-19T12:01:43;101728.81;;;6.72;59.28
53932;BME280;39844;52.496;13.482;2023-02-19T12:07:27;101728.84;;;6.74;58.26
53932;BME280;39844;52.496;13.482;2023-02-19T12:12:37;101727.44;;;6.86;57.91
53932;BME280;39844;52.496;13.482;2023-02-19T12:15:12;101728.78;;;7.04;57.07
53932;BME280;39844;52.496;13.482;2023-02-19T12:26:35;101743.75;;;7.43;57.75
53932;BME280;39844;52.496;13.482;2023-02-19T12:34:46;101752.50;;;7.81;54.21
53932;BME280;39844;52.496;13.482;2023-02-19T12:45:40;101760.41;;;9.04;51.29
53932;BME280;39844;52.496;13.482;2023-02-19T12:48:23;101765.50;;;8.96;49.98
53932;BME280;39844;52.496;13.482;2023-02-19T12:51:03;101772.41;;;8.93;49.10
53932;BME280;39844;52.496;13.482;2023-02-19T12:53:39;101761.47;;;8.68;49.48
53932;BME280;39844;52.496;13.482;2023-02-19T12:56:15;101774.50;;;8.65;52.03
53932;BME280;39844;52.496;13.482;2023-02-19T12:58:53;101786.84;;;8.72;50.74
53932;BME280;39844;52.496;13.482;2023-02-19T13:01:24;101774.31;;;8.56;50.41
53932;BME280;39844;52.496;13.482;2023-02-19T13:06:41;101773.44;;;8.18;51.28
53932;BME280;39844;52.496;13.482;2023-02-19T13:09:58;101779.50;;;8.16;52.90
53932;BME280;39844;52.496;13.482;2023-02-19T13:12:28;101794.41;;;8.21;51.18
53932;BME280;39844;52.496;13.482;2023-02-19T13:14:55;101802.66;;;8.01;51.90
53932;BME280;39844;52.496;13.482;2023-02-19T13:17:37;101791.50;;;7.72;51.22
53932;BME280;39844;52.496;13.482;2023-02-19T13:20:29;101795.50;;;7.58;53.45
53932;BME280;39844;52.496;13.482;2023-02-19T13:26:10;101806.44;;;7.43;53.61
53932;BME280;39844;52.496;13.482;2023-02-19T13:37:12;101800.09;;;7.03;53.66
53932;BME280;39844;52.496;13.482;2023-02-19T13:39:50;101802.56;;;6.96;53.44
53932;BME280;39844;52.496;13.482;2023-02-19T13:42:26;101803.28;;;6.91;53.78
53932;BME280;39844;52.496;13.482;2023-02-19T13:44:53;101813.53;;;6.85;54.33
53932;BME280;39844;52.496;13.482;2023-02-19T13:50:26;101810.88;;;6.83;54.43
53932;BME280;39844;52.496;13.482;2023-02-19T13:52:53;101801.63;;;6.94;54.00
53932;BME280;39844;52.496;13.482;2023-02-19T14:01:07;101824.22;;;7.58;50.88
53932;BME280;39844;52.496;13.482;2023-02-19T14:06:08;101839.84;;;7.55;50.13
53932;BME280;39844;52.496;13.482;2023-02-19T14:11:11;101835.78;;;7.33;51.22
53932;BME280;39844;52.496;13.482;2023-02-19T14:19:00;101858.59;;;7.09;51.96
53932;BME280;39844;52.496;13.482;2023-02-19T14:21:37;101848.91;;;7.05;51.88
53932;BME280;39844;52.496;13.482;2023-02-19T14:24:04;101841.06;;;7.05;51.95
53932;BME280;39844;52.496;13.482;2023-02-19T14:26:34;101853.31;;;7.08;51.36
53932;BME280;39844;52.496;13.482;2023-02-19T14:29:00;101838.53;;;7.07;52.54
53932;BME280;39844;52.496;13.482;2023-02-19T14:31:30;101851.41;;;7.02;51.72
53932;BME280;39844;52.496;13.482;2023-02-19T14:33:59;101839.97;;;6.97;51.82
53932;BME280;39844;52.496;13.482;2023-02-19T14:36:41;101848.81;;;7.02;51.88
53932;BME280;39844;52.496;13.482;2023-02-19T14:39:15;101849.78;;;7.06;51.34
53932;BME280;39844;52.496;13.482;2023-02-19T14:41:46;101852.44;;;7.07;53.40
53932;BME280;39844;52.496;13.482;2023-02-19T14:44:16;101843.59;;;7.02;53.03
53932;BME280;39844;52.496;13.482;2023-02-19T14:47:07;101847.88;;;7.00;53.02